Portada
METAR-TAF:

METAR-TAF

Aeropuertos :

Aeropuerto de León

León, España

latitud: 42-35N, longitud: 005-39W, altitud: 926 m

Observación

El informe se hizo hace 21 minutos, a las 20:00 UTC
Viento 3 kt del norte-noroeste
Temperatura 1°C
Humedad 100%
Presión 1019 hPa
Visibilidad 10 km o más
sin nubes por debajo de 1500 m y sin presencia de cumulonimbus.

METAR: LELN 292000Z 33003KT CAVOK 01/01 Q1019

Hora: 21:21 (20:21 UTC)

Pronóstico

El informe se hizo hace 6 horas y 21 minutos, a las 14:00 UTC
Pronóstico válido del 29 a las 15 UTC al 30 a las 15 UTC
Viento 5 kt del este
Visibilidad 10 km o más
sin nubes por debajo de 1500 m y sin presencia de cumulonimbus.

TAF: LELN 291400Z 2915/3015 10005KT CAVOK TX13/3015Z TN01/3006Z

Observaciones y pronósticos meteorológicos de más de 4000 aeropuertos (mensajes METAR y TAF).

Los puntos amarillos y rojos representan las estaciones disponibles.

Ponga el ratón en el punto deseado para ver el nombre de la estación.

Haga clic para ver las observaciones y los pronósticos meteorológicos.

Para cambiar el mapa : haga clic en los botones verdes con una cruz de color negro para hacer un zoom, en el botón verde con un guión para alejar o en las flechas verdes para mapas adyacentes.


METAR-TAF: